sensor_id;sensor_type;location;lat;lon;timestamp;pressure;altitude;pressure_sealevel;temperature;humidity
30347;BME280;19047;44.782;20.468;2022-09-29T00:00:14;99534.97;;;17.08;83.50
30347;BME280;19047;44.782;20.468;2022-09-29T00:03:44;99528.78;;;17.09;83.44
30347;BME280;19047;44.782;20.468;2022-09-29T00:07:01;99530.34;;;17.10;83.49
30347;BME280;19047;44.782;20.468;2022-09-29T00:10:31;99526.56;;;17.13;83.43
30347;BME280;19047;44.782;20.468;2022-09-29T00:13:48;99516.34;;;17.16;83.13
30347;BME280;19047;44.782;20.468;2022-09-29T00:17:18;99522.28;;;17.18;82.90
30347;BME280;19047;44.782;20.468;2022-09-29T00:20:35;99509.22;;;17.21;82.84
30347;BME280;19047;44.782;20.468;2022-09-29T00:24:05;99515.94;;;17.23;82.64
30347;BME280;19047;44.782;20.468;2022-09-29T00:27:22;99515.75;;;17.27;82.55
30347;BME280;19047;44.782;20.468;2022-09-29T00:30:54;99503.75;;;17.32;82.38
30347;BME280;19047;44.782;20.468;2022-09-29T00:34:11;99507.16;;;17.36;82.11
30347;BME280;19047;44.782;20.468;2022-09-29T00:37:42;99505.19;;;17.42;82.00
30347;BME280;19047;44.782;20.468;2022-09-29T00:40:59;99498.09;;;17.46;81.85
30347;BME280;19047;44.782;20.468;2022-09-29T00:48:11;99496.22;;;17.58;81.54
30347;BME280;19047;44.782;20.468;2022-09-29T00:51:46;99495.06;;;17.65;81.54
30347;BME280;19047;44.782;20.468;2022-09-29T00:55:05;99499.53;;;17.71;81.46
30347;BME280;19047;44.782;20.468;2022-09-29T00:58:37;99508.09;;;17.77;81.03
30347;BME280;19047;44.782;20.468;2022-09-29T01:01:56;99502.53;;;17.82;81.03
30347;BME280;19047;44.782;20.468;2022-09-29T01:05:29;99491.28;;;17.88;81.04
30347;BME280;19047;44.782;20.468;2022-09-29T01:08:53;99490.13;;;17.95;80.59
30347;BME280;19047;44.782;20.468;2022-09-29T01:12:27;99492.53;;;18.02;80.58
30347;BME280;19047;44.782;20.468;2022-09-29T01:15:44;99492.09;;;18.09;80.31
30347;BME280;19047;44.782;20.468;2022-09-29T01:19:34;99486.53;;;18.14;80.39
30347;BME280;19047;44.782;20.468;2022-09-29T01:23:38;99480.13;;;18.19;80.19
30347;BME280;19047;44.782;20.468;2022-09-29T01:30:39;99476.97;;;18.32;80.10
30347;BME280;19047;44.782;20.468;2022-09-29T01:34:22;99483.19;;;18.36;79.99
30347;BME280;19047;44.782;20.468;2022-09-29T01:37:45;99484.53;;;18.41;79.92
30347;BME280;19047;44.782;20.468;2022-09-29T01:41:31;99481.47;;;18.44;79.84
30347;BME280;19047;44.782;20.468;2022-09-29T01:44:55;99480.00;;;18.49;79.51
30347;BME280;19047;44.782;20.468;2022-09-29T01:48:31;99487.78;;;18.54;79.50
30347;BME280;19047;44.782;20.468;2022-09-29T01:51:59;99500.97;;;18.57;79.39
30347;BME280;19047;44.782;20.468;2022-09-29T01:55:31;99486.59;;;18.60;79.40
30347;BME280;19047;44.782;20.468;2022-09-29T01:58:56;99479.94;;;18.64;79.28
30347;BME280;19047;44.782;20.468;2022-09-29T02:03:04;99475.59;;;18.68;79.26
30347;BME280;19047;44.782;20.468;2022-09-29T02:06:11;99477.44;;;18.71;79.32
30347;BME280;19047;44.782;20.468;2022-09-29T02:09:44;99479.75;;;18.73;79.05
30347;BME280;19047;44.782;20.468;2022-09-29T02:13:05;99480.34;;;18.77;79.04
30347;BME280;19047;44.782;20.468;2022-09-29T02:16:39;99489.41;;;18.81;78.94
30347;BME280;19047;44.782;20.468;2022-09-29T02:19:57;99470.84;;;18.80;78.80
30347;BME280;19047;44.782;20.468;2022-09-29T02:23:27;99472.66;;;18.83;78.82
30347;BME280;19047;44.782;20.468;2022-09-29T02:26:44;99472.94;;;18.85;78.64
30347;BME280;19047;44.782;20.468;2022-09-29T02:30:15;99470.88;;;18.85;78.49
30347;BME280;19047;44.782;20.468;2022-09-29T02:33:32;99472.44;;;18.86;78.17
30347;BME280;19047;44.782;20.468;2022-09-29T02:48:08;99470.09;;;18.85;78.33
30347;BME280;19047;44.782;20.468;2022-09-29T02:51:46;99474.50;;;18.86;78.12
30347;BME280;19047;44.782;20.468;2022-09-29T02:58:41;99468.34;;;18.87;78.15
30347;BME280;19047;44.782;20.468;2022-09-29T03:02:03;99472.72;;;18.88;77.92
30347;BME280;19047;44.782;20.468;2022-09-29T03:05:34;99479.19;;;18.89;78.05
30347;BME280;19047;44.782;20.468;2022-09-29T03:08:51;99477.13;;;18.89;78.06
30347;BME280;19047;44.782;20.468;2022-09-29T03:12:21;99471.44;;;18.89;78.08
30347;BME280;19047;44.782;20.468;2022-09-29T03:15:41;99484.84;;;18.89;78.16
30347;BME280;19047;44.782;20.468;2022-09-29T03:19:12;99477.63;;;18.88;77.95
30347;BME280;19047;44.782;20.468;2022-09-29T03:22:29;99484.06;;;18.88;78.07
30347;BME280;19047;44.782;20.468;2022-09-29T03:25:59;99486.91;;;18.88;78.08
30347;BME280;19047;44.782;20.468;2022-09-29T03:29:16;99479.66;;;18.87;78.04
30347;BME280;19047;44.782;20.468;2022-09-29T03:32:46;99481.22;;;18.88;78.06
30347;BME280;19047;44.782;20.468;2022-09-29T03:36:07;99484.84;;;18.89;77.95
30347;BME280;19047;44.782;20.468;2022-09-29T03:39:38;99460.34;;;18.60;77.94
30347;BME280;19047;44.782;20.468;2022-09-29T03:42:55;99478.69;;;18.90;78.00
30347;BME280;19047;44.782;20.468;2022-09-29T03:46:25;99487.47;;;18.92;77.76
30347;BME280;19047;44.782;20.468;2022-09-29T03:49:42;99476.88;;;18.93;77.98
30347;BME280;19047;44.782;20.468;2022-09-29T03:53:12;99472.75;;;18.94;78.12
30347;BME280;19047;44.782;20.468;2022-09-29T03:56:30;99484.09;;;18.94;78.33
30347;BME280;19047;44.782;20.468;2022-09-29T04:00:00;99477.16;;;18.95;78.34
30347;BME280;19047;44.782;20.468;2022-09-29T04:03:17;99479.22;;;18.94;78.51
30347;BME280;19047;44.782;20.468;2022-09-29T04:06:47;99482.53;;;18.93;78.53
30347;BME280;19047;44.782;20.468;2022-09-29T04:10:04;99485.38;;;18.93;78.55
30347;BME280;19047;44.782;20.468;2022-09-29T04:13:35;99495.44;;;18.94;78.72
30347;BME280;19047;44.782;20.468;2022-09-29T04:16:52;99500.34;;;18.93;78.89
30347;BME280;19047;44.782;20.468;2022-09-29T04:20:24;99457.69;;;18.56;78.90
30347;BME280;19047;44.782;20.468;2022-09-29T04:23:41;99498.03;;;18.92;78.85
30347;BME280;19047;44.782;20.468;2022-09-29T04:27:13;99502.13;;;18.91;78.84
30347;BME280;19047;44.782;20.468;2022-09-29T04:30:31;99495.69;;;18.90;78.74
30347;BME280;19047;44.782;20.468;2022-09-29T04:34:01;99499.78;;;18.89;78.78
30347;BME280;19047;44.782;20.468;2022-09-29T04:37:18;99496.69;;;18.87;78.85
30347;BME280;19047;44.782;20.468;2022-09-29T04:40:49;99500.78;;;18.86;78.81
30347;BME280;19047;44.782;20.468;2022-09-29T04:44:06;99502.84;;;18.86;78.84
30347;BME280;19047;44.782;20.468;2022-09-29T04:47:37;99503.84;;;18.83;79.05
30347;BME280;19047;44.782;20.468;2022-09-29T04:50:54;99513.13;;;18.83;79.13
30347;BME280;19047;44.782;20.468;2022-09-29T04:54:28;99518.00;;;18.83;79.09
30347;BME280;19047;44.782;20.468;2022-09-29T04:57:45;99520.59;;;18.81;79.17
30347;BME280;19047;44.782;20.468;2022-09-29T05:01:16;99523.41;;;18.81;79.31
30347;BME280;19047;44.782;20.468;2022-09-29T05:04:34;99525.47;;;18.80;79.40
30347;BME280;19047;44.782;20.468;2022-09-29T05:08:05;99525.47;;;18.80;79.48
30347;BME280;19047;44.782;20.468;2022-09-29T05:11:22;99527.53;;;18.80;79.65
30347;BME280;19047;44.782;20.468;2022-09-29T05:14:51;99530.34;;;18.80;79.73
30347;BME280;19047;44.782;20.468;2022-09-29T05:18:08;99519.81;;;18.80;79.72
30347;BME280;19047;44.782;20.468;2022-09-29T05:21:38;99523.91;;;18.79;79.74
30347;BME280;19047;44.782;20.468;2022-09-29T05:24:56;99469.97;;;18.28;79.65
30347;BME280;19047;44.782;20.468;2022-09-29T05:28:25;99533.72;;;18.84;80.02
30347;BME280;19047;44.782;20.468;2022-09-29T05:31:42;99533.25;;;18.85;80.38
30347;BME280;19047;44.782;20.468;2022-09-29T05:35:11;99549.75;;;18.87;80.63
30347;BME280;19047;44.782;20.468;2022-09-29T05:38:35;99552.09;;;18.88;80.90
30347;BME280;19047;44.782;20.468;2022-09-29T05:42:09;99557.28;;;18.90;80.92
30347;BME280;19047;44.782;20.468;2022-09-29T05:45:27;99537.72;;;18.72;80.99
30347;BME280;19047;44.782;20.468;2022-09-29T05:48:58;99564.75;;;18.93;80.84
30347;BME280;19047;44.782;20.468;2022-09-29T05:52:16;99532.78;;;18.67;80.69
30347;BME280;19047;44.782;20.468;2022-09-29T05:55:46;99575.59;;;18.94;80.94
30347;BME280;19047;44.782;20.468;2022-09-29T05:59:03;99576.38;;;18.95;80.92
30347;BME280;19047;44.782;20.468;2022-09-29T06:02:34;99565.81;;;18.95;81.03
30347;BME280;19047;44.782;20.468;2022-09-29T06:05:52;99578.72;;;18.96;80.95
30347;BME280;19047;44.782;20.468;2022-09-29T06:09:22;99582.63;;;18.99;81.06
30347;BME280;19047;44.782;20.468;2022-09-29T06:12:39;99560.72;;;19.00;80.90
30347;BME280;19047;44.782;20.468;2022-09-29T06:16:12;99566.69;;;19.02;80.86
30347;BME280;19047;44.782;20.468;2022-09-29T06:19:28;99570.06;;;19.06;80.45
30347;BME280;19047;44.782;20.468;2022-09-29T06:22:59;99569.06;;;19.09;80.37
30347;BME280;19047;44.782;20.468;2022-09-29T06:26:17;99562.41;;;19.12;80.39
30347;BME280;19047;44.782;20.468;2022-09-29T06:29:47;99562.16;;;19.15;80.19
30347;BME280;19047;44.782;20.468;2022-09-29T06:33:05;99557.06;;;19.19;79.94
30347;BME280;19047;44.782;20.468;2022-09-29T06:36:38;99554.50;;;19.21;79.94
30347;BME280;19047;44.782;20.468;2022-09-29T06:40:14;99567.69;;;19.24;80.02
30347;BME280;19047;44.782;20.468;2022-09-29T06:43:45;99567.94;;;19.26;79.88
30347;BME280;19047;44.782;20.468;2022-09-29T06:47:03;99570.84;;;19.32;79.85
30347;BME280;19047;44.782;20.468;2022-09-29T06:50:33;99568.06;;;19.38;79.90
30347;BME280;19047;44.782;20.468;2022-09-29T06:53:50;99571.47;;;19.42;79.78
30347;BME280;19047;44.782;20.468;2022-09-29T06:57:20;99563.00;;;19.47;79.65
30347;BME280;19047;44.782;20.468;2022-09-29T07:00:37;99525.47;;;19.32;79.54
30347;BME280;19047;44.782;20.468;2022-09-29T07:04:07;99569.84;;;19.61;79.38
30347;BME280;19047;44.782;20.468;2022-09-29T07:07:24;99572.25;;;19.68;79.39
30347;BME280;19047;44.782;20.468;2022-09-29T07:10:55;99574.63;;;19.75;79.36
30347;BME280;19047;44.782;20.468;2022-09-29T07:14:13;99576.50;;;19.84;79.54
30347;BME280;19047;44.782;20.468;2022-09-29T07:17:44;99578.38;;;19.92;79.64
30347;BME280;19047;44.782;20.468;2022-09-29T07:21:01;99584.13;;;20.03;79.71
30347;BME280;19047;44.782;20.468;2022-09-29T07:24:32;99585.50;;;20.14;79.56
30347;BME280;19047;44.782;20.468;2022-09-29T07:27:52;99598.19;;;20.24;79.60
30347;BME280;19047;44.782;20.468;2022-09-29T07:31:22;99520.69;;;19.75;79.43
30347;BME280;19047;44.782;20.468;2022-09-29T07:34:39;99609.22;;;20.42;79.42
30347;BME280;19047;44.782;20.468;2022-09-29T07:38:11;99609.78;;;20.52;78.94
30347;BME280;19047;44.782;20.468;2022-09-29T07:41:30;99609.06;;;20.62;79.09
30347;BME280;19047;44.782;20.468;2022-09-29T07:45:00;99605.50;;;20.73;79.00
30347;BME280;19047;44.782;20.468;2022-09-29T07:48:18;99633.97;;;20.84;79.02
30347;BME280;19047;44.782;20.468;2022-09-29T07:51:50;99623.44;;;20.96;78.39
30347;BME280;19047;44.782;20.468;2022-09-29T07:55:07;99609.22;;;21.01;78.57
30347;BME280;19047;44.782;20.468;2022-09-29T07:58:39;99628.66;;;21.14;78.43
30347;BME280;19047;44.782;20.468;2022-09-29T08:02:05;99589.03;;;20.94;78.65
30347;BME280;19047;44.782;20.468;2022-09-29T08:05:35;99629.28;;;21.35;78.29
30347;BME280;19047;44.782;20.468;2022-09-29T08:08:53;99639.13;;;21.45;78.53
30347;BME280;19047;44.782;20.468;2022-09-29T08:12:24;99640.72;;;21.57;78.26
30347;BME280;19047;44.782;20.468;2022-09-29T08:15:43;99621.81;;;21.60;78.40
30347;BME280;19047;44.782;20.468;2022-09-29T08:19:16;99645.66;;;21.79;78.07
30347;BME280;19047;44.782;20.468;2022-09-29T08:22:35;99635.28;;;21.87;78.54
30347;BME280;19047;44.782;20.468;2022-09-29T08:26:10;99640.53;;;22.05;77.57
30347;BME280;19047;44.782;20.468;2022-09-29T08:29:28;99648.53;;;22.18;78.21
30347;BME280;19047;44.782;20.468;2022-09-29T08:32:58;99574.47;;;21.84;76.97
30347;BME280;19047;44.782;20.468;2022-09-29T08:36:22;99641.78;;;22.49;77.18
30347;BME280;19047;44.782;20.468;2022-09-29T08:39:52;99653.34;;;22.84;77.52
30347;BME280;19047;44.782;20.468;2022-09-29T08:43:15;99647.81;;;23.14;77.51
30347;BME280;19047;44.782;20.468;2022-09-29T08:47:01;99642.72;;;23.43;77.17
30347;BME280;19047;44.782;20.468;2022-09-29T08:50:36;99643.09;;;23.69;76.62
30347;BME280;19047;44.782;20.468;2022-09-29T08:54:37;99637.13;;;24.02;75.94
30347;BME280;19047;44.782;20.468;2022-09-29T08:58:37;99637.94;;;24.33;76.46
30347;BME280;19047;44.782;20.468;2022-09-29T09:10:17;99649.56;;;25.70;75.15
30347;BME280;19047;44.782;20.468;2022-09-29T09:14:22;99658.44;;;26.36;74.66
30347;BME280;19047;44.782;20.468;2022-09-29T09:22:19;99667.84;;;27.89;73.62
30347;BME280;19047;44.782;20.468;2022-09-29T09:25:48;99631.66;;;28.35;71.32
30347;BME280;19047;44.782;20.468;2022-09-29T09:29:30;99657.97;;;29.17;70.13
30347;BME280;19047;44.782;20.468;2022-09-29T09:32:56;99628.16;;;29.50;68.29
30347;BME280;19047;44.782;20.468;2022-09-29T09:36:35;99642.13;;;29.97;66.27
30347;BME280;19047;44.782;20.468;2022-09-29T09:40:16;99651.81;;;30.53;64.46
30347;BME280;19047;44.782;20.468;2022-09-29T09:43:57;99611.00;;;30.64;63.24
30347;BME280;19047;44.782;20.468;2022-09-29T09:47:29;99671.34;;;31.23;61.81
30347;BME280;19047;44.782;20.468;2022-09-29T09:51:17;99671.03;;;31.51;61.15
30347;BME280;19047;44.782;20.468;2022-09-29T09:54:43;99672.56;;;31.68;61.33
30347;BME280;19047;44.782;20.468;2022-09-29T09:58:31;99666.13;;;31.77;59.21
30347;BME280;19047;44.782;20.468;2022-09-29T10:01:55;99678.78;;;31.89;61.50
30347;BME280;19047;44.782;20.468;2022-09-29T10:05:35;99682.47;;;31.89;58.28
30347;BME280;19047;44.782;20.468;2022-09-29T10:09:11;99665.94;;;31.75;60.03
30347;BME280;19047;44.782;20.468;2022-09-29T10:12:47;99685.56;;;31.84;58.76
30347;BME280;19047;44.782;20.468;2022-09-29T10:16:15;99691.00;;;31.80;58.04
30347;BME280;19047;44.782;20.468;2022-09-29T10:20:04;99700.47;;;31.73;57.55
30347;BME280;19047;44.782;20.468;2022-09-29T10:23:35;99671.75;;;31.60;57.67
30347;BME280;19047;44.782;20.468;2022-09-29T10:27:07;99694.78;;;31.90;58.41
30347;BME280;19047;44.782;20.468;2022-09-29T10:30:34;99688.44;;;32.16;57.30
30347;BME280;19047;44.782;20.468;2022-09-29T10:37:40;99690.16;;;32.77;54.30
30347;BME280;19047;44.782;20.468;2022-09-29T10:41:11;99693.25;;;33.13;54.72
30347;BME280;19047;44.782;20.468;2022-09-29T10:44:31;99689.94;;;33.51;54.63
30347;BME280;19047;44.782;20.468;2022-09-29T10:51:23;99675.00;;;34.26;52.86
30347;BME280;19047;44.782;20.468;2022-09-29T10:54:59;99689.53;;;34.72;52.21
30347;BME280;19047;44.782;20.468;2022-09-29T10:58:30;99685.63;;;35.15;51.56
30347;BME280;19047;44.782;20.468;2022-09-29T11:02:03;99672.81;;;35.57;50.68
30347;BME280;19047;44.782;20.468;2022-09-29T11:05:21;99670.47;;;35.94;49.40
30347;BME280;19047;44.782;20.468;2022-09-29T11:12:34;99680.97;;;36.59;48.26
30347;BME280;19047;44.782;20.468;2022-09-29T11:16:15;99679.41;;;36.89;47.60
30347;BME280;19047;44.782;20.468;2022-09-29T11:19:34;99680.16;;;37.20;47.85
30347;BME280;19047;44.782;20.468;2022-09-29T11:26:42;99665.56;;;37.86;45.88
30347;BME280;19047;44.782;20.468;2022-09-29T11:30:18;99655.50;;;38.22;45.73
30347;BME280;19047;44.782;20.468;2022-09-29T11:41:32;99662.34;;;38.97;43.37
30347;BME280;19047;44.782;20.468;2022-09-29T11:45:10;99650.00;;;38.98;42.72
30347;BME280;19047;44.782;20.468;2022-09-29T11:48:39;99650.50;;;38.95;43.70
30347;BME280;19047;44.782;20.468;2022-09-29T12:00:10;99639.59;;;38.02;41.88
30347;BME280;19047;44.782;20.468;2022-09-29T12:03:49;99552.25;;;37.05;41.82
30347;BME280;19047;44.782;20.468;2022-09-29T12:08:00;99654.78;;;37.23;42.19
30347;BME280;19047;44.782;20.468;2022-09-29T12:11:53;99650.84;;;36.76;42.60
30347;BME280;19047;44.782;20.468;2022-09-29T12:16:00;99654.44;;;36.34;43.13
30347;BME280;19047;44.782;20.468;2022-09-29T12:19:32;99648.72;;;35.95;43.03
30347;BME280;19047;44.782;20.468;2022-09-29T12:23:00;99645.13;;;35.56;44.29
30347;BME280;19047;44.782;20.468;2022-09-29T12:26:32;99649.41;;;35.26;43.94
30347;BME280;19047;44.782;20.468;2022-09-29T12:30:20;99650.59;;;34.94;43.90
30347;BME280;19047;44.782;20.468;2022-09-29T12:34:05;99584.53;;;34.29;45.27
30347;BME280;19047;44.782;20.468;2022-09-29T12:37:32;99630.41;;;34.31;45.98
30347;BME280;19047;44.782;20.468;2022-09-29T12:44:32;99606.88;;;33.46;46.06
30347;BME280;19047;44.782;20.468;2022-09-29T12:48:22;99601.69;;;33.10;45.95
30347;BME280;19047;44.782;20.468;2022-09-29T12:51:48;99647.81;;;33.16;47.12
30347;BME280;19047;44.782;20.468;2022-09-29T12:55:52;99650.59;;;32.89;47.16
30347;BME280;19047;44.782;20.468;2022-09-29T12:59:26;99650.97;;;32.68;48.23
30347;BME280;19047;44.782;20.468;2022-09-29T13:25:58;99646.22;;;30.70;51.61
30347;BME280;19047;44.782;20.468;2022-09-29T13:29:20;99634.69;;;30.55;52.08
30347;BME280;19047;44.782;20.468;2022-09-29T13:33:09;99638.69;;;30.44;52.51
30347;BME280;19047;44.782;20.468;2022-09-29T13:36:29;99629.66;;;30.25;52.74
30347;BME280;19047;44.782;20.468;2022-09-29T13:40:02;99626.41;;;30.13;53.21
30347;BME280;19047;44.782;20.468;2022-09-29T13:43:39;99620.41;;;29.96;54.30
30347;BME280;19047;44.782;20.468;2022-09-29T13:47:30;99624.38;;;29.78;54.54
30347;BME280;19047;44.782;20.468;2022-09-29T13:50:49;99535.00;;;29.04;55.13
30347;BME280;19047;44.782;20.468;2022-09-29T13:54:25;99613.16;;;29.44;55.39
30347;BME280;19047;44.782;20.468;2022-09-29T13:57:49;99604.44;;;29.29;55.95
30347;BME280;19047;44.782;20.468;2022-09-29T14:01:34;99596.47;;;29.07;54.69
30347;BME280;19047;44.782;20.468;2022-09-29T14:04:54;99551.31;;;28.65;56.41
30347;BME280;19047;44.782;20.468;2022-09-29T14:08:26;99595.59;;;28.83;56.00
30347;BME280;19047;44.782;20.468;2022-09-29T14:11:50;99555.97;;;28.40;56.31
30347;BME280;19047;44.782;20.468;2022-09-29T14:15:25;99536.84;;;28.22;56.56
30347;BME280;19047;44.782;20.468;2022-09-29T14:19:06;99573.19;;;28.32;56.13
30347;BME280;19047;44.782;20.468;2022-09-29T14:25:59;99523.91;;;27.87;58.32
30347;BME280;19047;44.782;20.468;2022-09-29T14:29:33;99571.44;;;28.09;58.32
30347;BME280;19047;44.782;20.468;2022-09-29T14:33:03;99587.56;;;28.12;58.76
30347;BME280;19047;44.782;20.468;2022-09-29T14:36:39;99583.00;;;27.95;58.77
30347;BME280;19047;44.782;20.468;2022-09-29T14:39:58;99584.13;;;27.92;59.41
30347;BME280;19047;44.782;20.468;2022-09-29T14:43:55;99593.38;;;27.78;58.58
30347;BME280;19047;44.782;20.468;2022-09-29T14:51:16;99591.91;;;27.50;59.38
30347;BME280;19047;44.782;20.468;2022-09-29T14:55:10;99589.06;;;27.37;60.86
30347;BME280;19047;44.782;20.468;2022-09-29T14:58:46;99586.25;;;27.24;60.69
30347;BME280;19047;44.782;20.468;2022-09-29T15:05:44;99581.09;;;26.96;60.58
30347;BME280;19047;44.782;20.468;2022-09-29T15:09:20;99580.31;;;26.82;60.92
30347;BME280;19047;44.782;20.468;2022-09-29T15:12:52;99581.91;;;26.70;61.36
30347;BME280;19047;44.782;20.468;2022-09-29T15:16:19;99593.47;;;26.51;61.09
30347;BME280;19047;44.782;20.468;2022-09-29T15:20:07;99577.69;;;26.45;61.85
30347;BME280;19047;44.782;20.468;2022-09-29T15:27:03;99480.78;;;25.40;62.54
30347;BME280;19047;44.782;20.468;2022-09-29T15:30:21;99588.84;;;26.03;62.58
30347;BME280;19047;44.782;20.468;2022-09-29T15:33:53;99569.47;;;25.77;62.28
30347;BME280;19047;44.782;20.468;2022-09-29T15:37:12;99594.50;;;25.77;63.22
30347;BME280;19047;44.782;20.468;2022-09-29T15:40:52;99566.34;;;25.43;62.67
30347;BME280;19047;44.782;20.468;2022-09-29T15:44:14;99593.38;;;25.48;63.74
30347;BME280;19047;44.782;20.468;2022-09-29T15:47:58;99600.28;;;25.39;63.71
30347;BME280;19047;44.782;20.468;2022-09-29T15:51:16;99599.66;;;25.28;64.39
30347;BME280;19047;44.782;20.468;2022-09-29T15:54:47;99583.03;;;25.07;65.07
30347;BME280;19047;44.782;20.468;2022-09-29T16:01:41;99601.91;;;24.92;65.63
30347;BME280;19047;44.782;20.468;2022-09-29T16:05:12;99594.00;;;24.79;65.82
30347;BME280;19047;44.782;20.468;2022-09-29T16:08:32;99602.50;;;24.66;66.04
30347;BME280;19047;44.782;20.468;2022-09-29T16:12:05;99606.03;;;24.53;66.52
30347;BME280;19047;44.782;20.468;2022-09-29T16:15:30;99619.66;;;24.42;66.74
30347;BME280;19047;44.782;20.468;2022-09-29T16:19:05;99621.59;;;24.28;67.07
30347;BME280;19047;44.782;20.468;2022-09-29T16:22:23;99615.72;;;24.15;67.42
30347;BME280;19047;44.782;20.468;2022-09-29T16:29:29;99624.28;;;23.85;67.83
30347;BME280;19047;44.782;20.468;2022-09-29T16:36:36;99628.59;;;23.67;68.60
30347;BME280;19047;44.782;20.468;2022-09-29T16:40:16;99632.31;;;23.56;68.75
30347;BME280;19047;44.782;20.468;2022-09-29T16:43:34;99641.69;;;23.46;68.91
30347;BME280;19047;44.782;20.468;2022-09-29T16:47:15;99646.16;;;23.36;69.09
30347;BME280;19047;44.782;20.468;2022-09-29T16:50:36;99650.84;;;23.27;69.71
30347;BME280;19047;44.782;20.468;2022-09-29T16:54:08;99662.31;;;23.16;69.67
30347;BME280;19047;44.782;20.468;2022-09-29T16:57:31;99651.97;;;23.08;69.92
30347;BME280;19047;44.782;20.468;2022-09-29T17:01:03;99650.97;;;23.00;70.10
30347;BME280;19047;44.782;20.468;2022-09-29T17:04:20;99652.28;;;22.93;70.25
30347;BME280;19047;44.782;20.468;2022-09-29T17:07:50;99661.91;;;22.84;70.57
30347;BME280;19047;44.782;20.468;2022-09-29T17:11:08;99668.94;;;22.78;70.54
30347;BME280;19047;44.782;20.468;2022-09-29T17:14:39;99678.25;;;22.73;71.16
30347;BME280;19047;44.782;20.468;2022-09-29T17:17:55;99668.16;;;22.66;71.16
30347;BME280;19047;44.782;20.468;2022-09-29T17:21:26;99664.78;;;22.62;71.21
30347;BME280;19047;44.782;20.468;2022-09-29T17:24:43;99684.25;;;22.58;71.40
30347;BME280;19047;44.782;20.468;2022-09-29T17:28:15;99660.94;;;22.54;71.77
30347;BME280;19047;44.782;20.468;2022-09-29T17:31:31;99657.81;;;22.52;71.87
30347;BME280;19047;44.782;20.468;2022-09-29T17:35:05;99647.47;;;22.49;72.02
30347;BME280;19047;44.782;20.468;2022-09-29T17:38:23;99654.22;;;22.46;72.15
30347;BME280;19047;44.782;20.468;2022-09-29T17:41:53;99657.31;;;22.42;72.51
30347;BME280;19047;44.782;20.468;2022-09-29T17:45:09;99674.94;;;22.41;72.26
30347;BME280;19047;44.782;20.468;2022-09-29T17:48:40;99663.31;;;22.39;72.57
30347;BME280;19047;44.782;20.468;2022-09-29T17:51:57;99668.22;;;22.38;72.61
30347;BME280;19047;44.782;20.468;2022-09-29T17:55:30;99672.38;;;22.37;72.74
30347;BME280;19047;44.782;20.468;2022-09-29T17:58:48;99678.59;;;22.36;72.92
30347;BME280;19047;44.782;20.468;2022-09-29T18:02:19;99684.28;;;22.36;72.64
30347;BME280;19047;44.782;20.468;2022-09-29T18:05:36;99689.72;;;22.34;72.86
30347;BME280;19047;44.782;20.468;2022-09-29T18:09:16;99705.25;;;22.33;73.00
30347;BME280;19047;44.782;20.468;2022-09-29T18:12:34;99721.84;;;22.29;72.86
30347;BME280;19047;44.782;20.468;2022-09-29T18:16:04;99730.94;;;22.27;72.97
30347;BME280;19047;44.782;20.468;2022-09-29T18:19:22;99749.31;;;22.26;73.42
30347;BME280;19047;44.782;20.468;2022-09-29T18:22:52;99766.94;;;22.25;73.92
30347;BME280;19047;44.782;20.468;2022-09-29T18:26:12;99781.69;;;22.23;74.04
30347;BME280;19047;44.782;20.468;2022-09-29T18:29:45;99781.16;;;22.19;74.05
30347;BME280;19047;44.782;20.468;2022-09-29T18:33:03;99778.59;;;22.15;75.20
30347;BME280;19047;44.782;20.468;2022-09-29T18:36:35;99799.28;;;22.10;75.81
30347;BME280;19047;44.782;20.468;2022-09-29T18:39:52;99804.72;;;22.03;75.81
30347;BME280;19047;44.782;20.468;2022-09-29T18:43:23;99817.34;;;21.96;75.45
30347;BME280;19047;44.782;20.468;2022-09-29T18:46:41;99824.81;;;21.88;75.40
30347;BME280;19047;44.782;20.468;2022-09-29T18:50:19;99835.16;;;21.80;75.49
30347;BME280;19047;44.782;20.468;2022-09-29T18:53:36;99830.47;;;21.71;75.84
30347;BME280;19047;44.782;20.468;2022-09-29T18:57:09;99833.53;;;21.62;76.40
30347;BME280;19047;44.782;20.468;2022-09-29T19:00:31;99843.59;;;21.52;76.45
30347;BME280;19047;44.782;20.468;2022-09-29T19:04:01;99843.53;;;21.41;76.28
30347;BME280;19047;44.782;20.468;2022-09-29T19:07:18;99846.31;;;21.30;76.36
30347;BME280;19047;44.782;20.468;2022-09-29T19:10:51;99843.38;;;21.19;76.50
30347;BME280;19047;44.782;20.468;2022-09-29T19:14:12;99859.56;;;21.07;76.52
30347;BME280;19047;44.782;20.468;2022-09-29T19:17:47;99868.81;;;20.96;76.66
30347;BME280;19047;44.782;20.468;2022-09-29T19:21:07;99867.94;;;20.85;76.97
30347;BME280;19047;44.782;20.468;2022-09-29T19:28:33;99884.00;;;20.62;77.13
30347;BME280;19047;44.782;20.468;2022-09-29T19:31:50;99886.25;;;20.52;77.28
30347;BME280;19047;44.782;20.468;2022-09-29T19:35:23;99884.84;;;20.42;77.23
30347;BME280;19047;44.782;20.468;2022-09-29T19:38:40;99886.25;;;20.32;77.36
30347;BME280;19047;44.782;20.468;2022-09-29T19:42:10;99887.72;;;20.22;77.36
30347;BME280;19047;44.782;20.468;2022-09-29T19:45:27;99885.00;;;20.13;77.42
30347;BME280;19047;44.782;20.468;2022-09-29T19:49:00;99888.00;;;20.03;77.63
30347;BME280;19047;44.782;20.468;2022-09-29T19:52:17;99895.09;;;19.93;77.74
30347;BME280;19047;44.782;20.468;2022-09-29T19:55:48;99905.34;;;19.85;77.78
30347;BME280;19047;44.782;20.468;2022-09-29T19:59:24;99899.78;;;19.76;77.89
30347;BME280;19047;44.782;20.468;2022-09-29T20:02:56;99901.22;;;19.66;78.15
30347;BME280;19047;44.782;20.468;2022-09-29T20:06:14;99899.28;;;19.57;78.25
30347;BME280;19047;44.782;20.468;2022-09-29T20:09:47;99905.38;;;19.50;78.42